Time;durP1;ratioP1;P1;durP2;ratioP2;P2;SDS_P1;SDS_P2;PMS_P1;PMS_P2;Temp;Humidity;BMP_temperature;BMP_pressure;BME280_temperature;BME280_humidity;BME280_pressure;Samples;Min_cycle;Max_cycle;Signal;HPM_P1;HPM_P2
2021/01/02 00:00:53;;;;;;;24.63;14.05;;;230.60;1587.20;;;;;;5099446;28;20503;-59
2021/01/02 00:03:52;;;;;;;25.17;14.40;;;230.60;1561.60;;;;;;5092814;28;20066;-57
2021/01/02 00:06:26;;;;;;;;;;;230.60;1587.20;;;;;;5101523;28;20031;-59
2021/01/02 00:09:00;;;;;;;23.92;13.88;;;230.70;1587.20;;;;;;5110867;28;19911;-57
2021/01/02 00:11:38;;;;;;;22.80;14.07;;;230.60;1587.20;;;;;;5105938;28;20106;-55
2021/01/02 00:14:09;;;;;;;26.60;14.88;;;230.60;1587.20;;;;;;5094375;28;20069;-58
2021/01/02 00:16:45;;;;;;;23.17;13.70;;;230.60;1587.20;;;;;;5102384;28;20024;-56
2021/01/02 00:19:41;;;;;;;23.50;13.35;;;230.60;1587.20;;;;;;5096374;28;20119;-57
2021/01/02 00:22:11;;;;;;;24.20;13.57;;;230.70;1561.60;;;;;;5099433;28;20023;-57
2021/01/02 00:24:43;;;;;;;18.98;12.23;;;230.70;1561.60;;;;;;5113693;28;20040;-56
2021/01/02 00:27:21;;;;;;;23.23;12.88;;;230.70;1587.20;;;;;;5108227;28;20032;-57
2021/01/02 00:29:46;;;;;;;22.95;12.80;;;230.60;1587.20;;;;;;5104857;28;20035;-58
2021/01/02 00:32:24;;;;;;;23.38;13.18;;;230.50;1587.20;;;;;;5113426;28;20377;-57
2021/01/02 00:35:23;;;;;;;19.73;13.57;;;230.50;1612.80;;;;;;5112835;28;20031;-57
2021/01/02 00:38:05;;;;;;;19.38;11.85;;;230.50;1612.80;;;;;;5070583;28;20032;-56
2021/01/02 00:40:33;;;;;;;24.38;11.75;;;230.40;1612.80;;;;;;5070700;28;20041;-57
2021/01/02 00:42:59;;;;;;;18.13;11.40;;;230.40;1612.80;;;;;;5070501;28;20040;-56
2021/01/02 00:45:29;;;;;;;21.45;12.50;;;230.40;1612.80;;;;;;5055810;28;20044;-57
2021/01/02 00:47:55;;;;;;;18.92;10.85;;;205.70;1638.40;;;;;;5066393;28;20047;-57
2021/01/02 00:50:23;;;;;;;20.33;12.25;;;205.70;1638.40;;;;;;5068390;28;20033;-57
2021/01/02 00:52:54;;;;;;;18.45;11.25;;;230.40;1638.40;;;;;;5069542;28;20998;-56
2021/01/02 00:55:25;;;;;;;18.45;10.52;;;205.70;1638.40;;;;;;5069595;28;20084;-58
2021/01/02 00:58:12;;;;;;;18.55;11.45;;;205.60;1638.40;;;;;;5067511;28;20032;-57
2021/01/02 01:00:42;;;;;;;20.33;12.40;;;205.60;1638.40;;;;;;5068363;28;20044;-57
2021/01/02 01:03:29;;;;;;;21.52;12.57;;;205.60;1664.00;;;;;;5064690;28;20277;-57
2021/01/02 01:05:56;;;;;;;19.70;12.80;;;205.60;1664.00;;;;;;5053187;28;20032;-58
2021/01/02 01:08:23;;;;;;;23.38;12.80;;;205.50;1664.00;;;;;;5060869;28;20513;-55
2021/01/02 01:10:50;;;;;;;22.25;13.07;;;205.50;1664.00;;;;;;5058420;28;20024;-56
2021/01/02 01:13:23;;;;;;;20.27;11.82;;;205.50;1664.00;;;;;;5074834;28;20040;-57
2021/01/02 01:15:50;;;;;;;22.80;14.32;;;205.50;1664.00;;;;;;5092944;28;20020;-55
2021/01/02 01:18:18;;;;;;;23.05;13.32;;;205.40;1664.00;;;;;;5100142;28;20031;-55
2021/01/02 01:20:48;;;;;;;21.13;13.68;;;205.30;1689.60;;;;;;5111856;28;20016;-54
2021/01/02 01:23:32;;;;;;;25.50;14.00;;;205.40;1664.00;;;;;;5109742;28;20037;-56
2021/01/02 01:26:26;;;;;;;23.73;13.88;;;205.30;1689.60;;;;;;5093798;28;20496;-54
2021/01/02 01:28:57;;;;;;;23.00;14.13;;;205.20;1689.60;;;;;;5092202;28;20108;-55
2021/01/02 01:31:23;;;;;;;21.27;13.60;;;205.20;1689.60;;;;;;5090464;28;20433;-55
2021/01/02 01:33:57;;;;;;;22.00;13.07;;;205.20;1689.60;;;;;;5092205;28;20056;-56
2021/01/02 01:36:33;;;;;;;25.88;13.38;;;205.10;1715.20;;;;;;5097966;28;20085;-54
2021/01/02 01:39:01;;;;;;;21.25;12.35;;;205.10;1715.20;;;;;;5096629;28;20020;-55
2021/01/02 01:41:36;;;;;;;23.88;14.40;;;205.10;1740.80;;;;;;5091654;28;20423;-56
2021/01/02 01:44:10;;;;;;;25.10;13.98;;;205.10;1740.80;;;;;;5091876;28;20039;-55
2021/01/02 01:46:54;;;;;;;21.73;12.60;;;205.00;1715.20;;;;;;5093532;28;20027;-54
2021/01/02 01:49:32;;;;;;;23.58;14.00;;;205.00;1740.80;;;;;;5096241;28;20024;-55
2021/01/02 01:52:04;;;;;;;27.00;13.52;;;205.00;1740.80;;;;;;5095776;28;20021;-55
2021/01/02 01:54:55;;;;;;;22.15;13.10;;;205.00;1740.80;;;;;;5095770;28;20032;-54
2021/01/02 01:57:26;;;;;;;19.92;13.15;;;205.00;1740.80;;;;;;5098937;28;20028;-55
2021/01/02 01:59:57;;;;;;;18.13;12.35;;;205.00;1740.80;;;;;;5094464;28;20016;-54
2021/01/02 02:02:45;;;;;;;21.10;12.20;;;204.90;1740.80;;;;;;5095422;28;20047;-56
2021/01/02 02:05:12;;;;;;;19.92;12.50;;;204.90;1740.80;;;;;;5095188;28;20047;-55
2021/01/02 02:07:54;;;;;;;18.90;11.68;;;204.90;1740.80;;;;;;5093129;28;20028;-55
2021/01/02 02:10:27;;;;;;;19.42;12.00;;;204.80;1766.40;;;;;;5095458;28;20035;-55
2021/01/02 02:12:58;;;;;;;16.42;11.68;;;180.10;1766.40;;;;;;5101374;28;20024;-55
2021/01/02 02:15:27;;;;;;;22.88;10.25;;;180.10;1740.80;;;;;;5114678;28;20023;-55
2021/01/02 02:18:00;;;;;;;17.38;10.45;;;180.10;1766.40;;;;;;5104044;28;20012;-55
2021/01/02 02:20:29;;;;;;;15.90;10.05;;;204.80;1740.80;;;;;;5116014;28;20046;-55
2021/01/02 02:23:08;;;;;;;15.27;9.45;;;180.10;1740.80;;;;;;5116573;28;20423;-55
2021/01/02 02:25:49;;;;;;;15.70;9.98;;;204.80;1740.80;;;;;;5102425;28;20059;-55
2021/01/02 02:28:56;;;;;;;16.80;9.95;;;204.80;1715.20;;;;;;5116153;28;20425;-56
2021/01/02 02:31:25;;;;;;;17.13;9.70;;;204.90;1715.20;;;;;;5087845;28;20115;-55
2021/01/02 02:34:01;;;;;;;17.20;9.63;;;204.90;1689.60;;;;;;5109273;28;20028;-55
2021/01/02 02:36:29;;;;;;;13.73;9.40;;;204.90;1715.20;;;;;;5116646;28;20533;-55
2021/01/02 02:38:59;;;;;;;17.95;9.40;;;204.90;1689.60;;;;;;5116499;28;20016;-57
2021/01/02 02:41:36;;;;;;;17.15;9.52;;;204.80;1689.60;;;;;;5110974;27;20042;-55
2021/01/02 02:44:05;;;;;;;18.10;9.57;;;204.90;1689.60;;;;;;5108800;28;20050;-57
2021/01/02 02:46:32;;;;;;;;;;;204.90;1689.60;;;;;;5102268;28;20026;-56
2021/01/02 02:49:05;;;;;;;16.50;9.75;;;204.90;1689.60;;;;;;5105284;28;20277;-59
2021/01/02 02:51:38;;;;;;;17.05;10.05;;;204.80;1715.20;;;;;;5113637;28;20011;-56
2021/01/02 02:54:04;;;;;;;21.15;11.13;;;180.10;1715.20;;;;;;5116467;28;20027;-56
2021/01/02 02:56:30;;;;;;;16.70;10.27;;;180.10;1715.20;;;;;;5115047;28;20024;-56
2021/01/02 02:58:56;;;;;;;18.73;9.63;;;180.10;1715.20;;;;;;5115357;28;20466;-58
2021/01/02 03:01:22;;;;;;;15.77;8.70;;;180.10;1715.20;;;;;;5100799;28;20020;-56
2021/01/02 03:03:48;;;;;;;15.35;9.10;;;180.10;1715.20;;;;;;5115147;28;20048;-54
2021/01/02 03:06:14;;;;;;;16.63;9.18;;;180.10;1715.20;;;;;;5115362;28;20020;-57
2021/01/02 03:08:41;;;;;;;14.55;8.70;;;204.80;1715.20;;;;;;5114848;28;20094;-57
2021/01/02 03:11:08;;;;;;;13.52;9.23;;;204.80;1715.20;;;;;;5103501;27;20020;-56
2021/01/02 03:13:41;;;;;;;13.65;8.32;;;204.80;1689.60;;;;;;5112607;28;20019;-54
2021/01/02 03:16:07;;;;;;;16.83;9.35;;;180.10;1715.20;;;;;;5105440;28;20028;-54
2021/01/02 03:18:33;;;;;;;16.10;10.13;;;180.10;1715.20;;;;;;5110503;28;20015;-56
2021/01/02 03:20:58;;;;;;;19.45;9.98;;;180.10;1740.80;;;;;;5114932;28;20118;-54
2021/01/02 03:23:24;;;;;;;15.68;10.30;;;180.10;1715.20;;;;;;5114893;28;20052;-57
2021/01/02 03:25:50;;;;;;;16.42;8.80;;;180.00;1740.80;;;;;;5115255;27;20078;-58
2021/01/02 03:28:15;;;;;;;15.80;9.07;;;180.00;1715.20;;;;;;5114869;28;20031;-54
2021/01/02 03:30:41;;;;;;;16.58;9.52;;;180.00;1740.80;;;;;;5114393;28;20031;-56
2021/01/02 03:33:07;;;;;;;13.90;9.45;;;180.00;1740.80;;;;;;5103011;28;20032;-54
2021/01/02 03:35:32;;;;;;;16.20;9.27;;;180.00;1715.20;;;;;;5094498;28;20114;-56
2021/01/02 03:37:58;;;;;;;16.58;8.93;;;180.10;1715.20;;;;;;5093755;28;20063;-57
2021/01/02 03:40:24;;;;;;;12.88;8.63;;;180.10;1740.80;;;;;;5094800;28;20039;-60
2021/01/02 03:42:49;;;;;;;18.05;10.27;;;180.10;1715.20;;;;;;5094176;28;20028;-55
2021/01/02 03:45:16;;;;;;;16.63;9.60;;;180.10;1715.20;;;;;;5093057;28;20153;-57
2021/01/02 03:47:48;;;;;;;16.05;9.60;;;180.10;1740.80;;;;;;5093654;28;20369;-54
2021/01/02 03:50:15;;;;;;;15.43;10.07;;;180.10;1715.20;;;;;;5096183;28;20416;-55
2021/01/02 03:52:41;;;;;;;15.35;9.55;;;180.10;1740.80;;;;;;5113485;28;20470;-56
2021/01/02 03:55:09;;;;;;;17.27;9.73;;;180.10;1715.20;;;;;;5101194;28;20031;-58
2021/01/02 03:57:36;;;;;;;14.23;8.77;;;180.10;1740.80;;;;;;5114913;28;20084;-55
2021/01/02 04:00:07;;;;;;;16.48;8.85;;;180.00;1715.20;;;;;;5114089;28;20028;-55
2021/01/02 04:02:33;;;;;;;14.05;9.00;;;180.00;1740.80;;;;;;5104413;28;20382;-54
2021/01/02 04:04:59;;;;;;;14.18;8.30;;;180.00;1740.80;;;;;;5108704;28;20059;-56
2021/01/02 04:07:24;;;;;;;14.25;8.38;;;179.90;1740.80;;;;;;5114590;28;20051;-55
2021/01/02 04:09:50;;;;;;;13.15;8.30;;;180.00;1740.80;;;;;;5113395;28;20469;-54
2021/01/02 04:12:16;;;;;;;13.63;7.80;;;179.90;1715.20;;;;;;5113637;28;20424;-55
2021/01/02 04:14:41;;;;;;;13.48;8.13;;;179.90;1715.20;;;;;;5114005;28;20130;-55
2021/01/02 04:17:07;;;;;;;11.48;7.10;;;179.90;1740.80;;;;;;5113406;28;20024;-54
2021/01/02 04:19:33;;;;;;;14.15;7.40;;;179.90;1740.80;;;;;;5106092;28;20032;-55
2021/01/02 04:21:59;;;;;;;14.35;7.38;;;179.90;1740.80;;;;;;5107318;28;20500;-56
2021/01/02 04:24:26;;;;;;;12.23;7.70;;;179.90;1740.80;;;;;;5113576;28;20092;-57
2021/01/02 04:26:57;;;;;;;11.80;7.63;;;179.90;1740.80;;;;;;5113534;28;20058;-62
2021/01/02 04:29:23;;;;;;;14.70;8.98;;;179.90;1740.80;;;;;;5113415;28;20023;-56
2021/01/02 04:31:50;;;;;;;11.93;8.00;;;180.00;1740.80;;;;;;5113562;28;20089;-57
2021/01/02 04:34:16;;;;;;;12.82;7.95;;;180.00;1740.80;;;;;;5113464;28;20381;-55
2021/01/02 04:36:42;;;;;;;14.40;7.88;;;180.00;1715.20;;;;;;5113430;28;20038;-54
2021/01/02 04:39:09;;;;;;;13.63;8.65;;;180.00;1715.20;;;;;;5113617;28;20024;-54
2021/01/02 04:41:36;;;;;;;16.20;8.35;;;180.10;1715.20;;;;;;5113936;28;20030;-53
2021/01/02 04:44:03;;;;;;;15.45;7.38;;;180.10;1689.60;;;;;;5113354;28;20385;-55
2021/01/02 04:46:30;;;;;;;12.60;7.47;;;180.00;1715.20;;;;;;5112915;28;20107;-58
2021/01/02 04:48:58;;;;;;;12.55;7.03;;;180.00;1715.20;;;;;;5101707;28;20119;-55
2021/01/02 04:51:24;;;;;;;10.52;6.70;;;180.00;1689.60;;;;;;5111156;28;20020;-55
2021/01/02 04:53:49;;;;;;;12.48;6.50;;;179.90;1715.20;;;;;;5104514;28;20020;-55
2021/01/02 04:56:16;;;;;;;12.80;7.07;;;180.00;1689.60;;;;;;5108114;28;20114;-54
2021/01/02 04:58:44;;;;;;;14.15;7.35;;;180.00;1689.60;;;;;;5112906;28;20458;-55
2021/01/02 05:01:12;;;;;;;10.60;7.07;;;180.00;1689.60;;;;;;5113366;28;20351;-55
2021/01/02 05:03:46;;;;;;;12.02;7.07;;;180.00;1689.60;;;;;;5112913;28;20561;-56
2021/01/02 05:06:12;;;;;;;9.88;6.18;;;179.90;1689.60;;;;;;5113240;28;20149;-55
2021/01/02 05:08:40;;;;;;;12.88;7.82;;;180.00;1689.60;;;;;;5112694;28;20373;-53
2021/01/02 05:11:08;;;;;;;11.07;7.15;;;180.00;1689.60;;;;;;5113282;28;20054;-55
2021/01/02 05:13:37;;;;;;;11.37;6.77;;;180.00;1689.60;;;;;;5112883;28;20030;-55
2021/01/02 05:16:17;;;;;;;11.73;7.20;;;180.00;1689.60;;;;;;5113166;28;20031;-55
2021/01/02 05:19:09;;;;;;;11.27;6.70;;;180.00;1689.60;;;;;;5112722;28;20027;-57
2021/01/02 05:21:37;;;;;;;13.18;6.45;;;179.90;1689.60;;;;;;5101187;28;20036;-57
2021/01/02 05:24:07;;;;;;;12.50;6.88;;;179.90;1689.60;;;;;;5096487;28;20028;-57
2021/01/02 05:26:41;;;;;;;12.13;6.68;;;179.90;1689.60;;;;;;5096273;28;20057;-55
2021/01/02 05:29:21;;;;;;;12.05;6.35;;;179.90;1664.00;;;;;;5096571;28;20454;-57
2021/01/02 05:31:49;;;;;;;10.02;5.70;;;180.00;1664.00;;;;;;5096244;28;20517;-56
2021/01/02 05:34:18;;;;;;;13.52;5.70;;;180.00;1638.40;;;;;;5096150;28;20119;-57
2021/01/02 05:36:44;;;;;;;11.25;5.72;;;180.00;1664.00;;;;;;5095361;28;20032;-57
2021/01/02 05:39:11;;;;;;;8.85;5.43;;;180.00;1638.40;;;;;;5096002;28;20016;-55
2021/01/02 05:41:52;;;;;;;10.43;5.97;;;180.10;1638.40;;;;;;5096106;28;20382;-55
2021/01/02 05:44:19;;;;;;;6.78;4.75;;;180.00;1664.00;;;;;;5096438;28;20441;-55
2021/01/02 05:46:53;;;;;;;9.63;5.20;;;180.00;1664.00;;;;;;5096209;28;20016;-56
2021/01/02 05:49:49;;;;;;;9.68;5.60;;;180.00;1664.00;;;;;;5096541;28;20031;-55
2021/01/02 05:52:15;;;;;;;9.70;5.00;;;180.00;1664.00;;;;;;5033451;28;20033;-54
2021/01/02 05:54:46;;;;;;;9.10;5.78;;;179.90;1664.00;;;;;;5033982;28;20034;-55
2021/01/02 05:57:13;;;;;;;10.75;6.07;;;179.90;1689.60;;;;;;5033522;28;20037;-56
2021/01/02 05:59:41;;;;;;;10.18;5.15;;;179.90;1689.60;;;;;;5034052;28;20534;-56
2021/01/02 06:02:31;;;;;;;10.60;5.20;;;179.90;1664.00;;;;;;5033179;28;20068;-56
2021/01/02 06:05:04;;;;;;;10.60;5.63;;;180.00;1664.00;;;;;;5017085;28;20115;-56
2021/01/02 06:07:35;;;;;;;10.50;4.50;;;180.00;1664.00;;;;;;5013967;28;20519;-55
2021/01/02 06:10:01;;;;;;;11.05;5.47;;;180.00;1664.00;;;;;;5014251;28;20038;-56
2021/01/02 06:12:32;;;;;;;9.73;5.20;;;180.00;1664.00;;;;;;5013692;28;20030;-54
2021/01/02 06:15:01;;;;;;;10.65;5.82;;;180.00;1664.00;;;;;;5014037;28;20400;-56
2021/01/02 06:17:32;;;;;;;9.82;6.03;;;180.00;1664.00;;;;;;5013905;28;20030;-55
2021/01/02 06:20:05;;;;;;;10.00;5.45;;;180.00;1689.60;;;;;;5015097;28;20172;-56
2021/01/02 06:22:31;;;;;;;11.00;5.68;;;180.10;1664.00;;;;;;5015314;28;20088;-58
2021/01/02 06:24:58;;;;;;;12.60;6.07;;;180.10;1664.00;;;;;;5014043;28;20034;-55
2021/01/02 06:27:24;;;;;;;11.30;5.97;;;180.00;1664.00;;;;;;5013421;28;20048;-55
2021/01/02 06:29:52;;;;;;;8.90;6.22;;;180.00;1664.00;;;;;;5043835;28;20037;-57
2021/01/02 06:32:19;;;;;;;11.77;6.23;;;180.10;1664.00;;;;;;5043912;28;20112;-58
2021/01/02 06:35:08;;;;;;;14.15;6.82;;;180.10;1664.00;;;;;;5055655;28;20104;-57
2021/01/02 06:37:56;;;;;;;11.57;6.45;;;180.10;1664.00;;;;;;5055058;28;20059;-55
2021/01/02 06:40:49;;;;;;;11.50;6.20;;;180.10;1664.00;;;;;;5040448;28;20033;-56
2021/01/02 06:43:22;;;;;;;11.30;7.05;;;204.80;1664.00;;;;;;5039623;28;20124;-56
2021/01/02 06:45:56;;;;;;;16.63;7.03;;;204.80;1664.00;;;;;;5053550;28;20375;-55
2021/01/02 06:48:25;;;;;;;16.50;7.82;;;204.90;1638.40;;;;;;5054950;28;20371;-56
2021/01/02 06:50:55;;;;;;;17.17;8.52;;;204.90;1664.00;;;;;;5054792;28;20593;-58
2021/01/02 06:53:37;;;;;;;12.48;8.20;;;205.00;1638.40;;;;;;5054802;28;20097;-55
2021/01/02 06:56:07;;;;;;;11.98;8.07;;;205.00;1638.40;;;;;;5054893;28;20090;-55
2021/01/02 06:58:46;;;;;;;14.82;7.45;;;205.00;1638.40;;;;;;5054664;28;20033;-55
2021/01/02 07:01:18;;;;;;;12.98;7.97;;;205.10;1638.40;;;;;;5054591;28;20033;-58
2021/01/02 07:03:48;;;;;;;14.35;6.78;;;205.00;1638.40;;;;;;5067297;28;20101;-56
2021/01/02 07:06:23;;;;;;;63.70;29.25;;;205.10;1612.80;;;;;;5094879;28;20028;-56
2021/01/02 07:08:54;;;;;;;69.25;34.30;;;205.20;1612.80;;;;;;5094557;28;20377;-55
2021/01/02 07:11:40;;;;;;;134.13;65.38;;;205.20;1612.80;;;;;;5095337;28;20047;-54
2021/01/02 07:14:08;;;;;;;78.60;37.17;;;205.20;1587.20;;;;;;5094493;28;20063;-54
2021/01/02 07:16:56;;;;;;;36.88;23.88;;;205.20;1612.80;;;;;;5094918;28;20113;-54
2021/01/02 07:19:30;;;;;;;19.48;11.35;;;205.40;1587.20;;;;;;5094704;28;20051;-55
2021/01/02 07:22:08;;;;;;;14.38;9.05;;;205.40;1587.20;;;;;;5094579;28;20020;-56
2021/01/02 07:24:37;;;;;;;17.40;11.40;;;205.40;1587.20;;;;;;5094372;28;20024;-55
2021/01/02 07:27:10;;;;;;;13.55;8.15;;;205.40;1587.20;;;;;;5094336;28;20020;-54
2021/01/02 07:29:47;;;;;;;14.85;8.60;;;205.50;1587.20;;;;;;5094536;28;20024;-55
2021/01/02 07:32:17;;;;;;;22.67;10.52;;;205.50;1561.60;;;;;;5094282;28;20107;-58
2021/01/02 07:34:44;;;;;;;20.55;10.93;;;205.50;1561.60;;;;;;5094219;28;20052;-55
2021/01/02 07:37:12;;;;;;;22.25;12.05;;;205.60;1561.60;;;;;;5093993;28;20481;-55
2021/01/02 07:39:39;;;;;;;18.52;11.02;;;205.70;1561.60;;;;;;5094407;28;20107;-55
2021/01/02 07:42:10;;;;;;;27.60;13.90;;;230.40;1536.00;;;;;;5094411;28;20032;-55
2021/01/02 07:44:40;;;;;;;16.73;11.65;;;230.40;1536.00;;;;;;5092955;28;20059;-55
2021/01/02 07:47:07;;;;;;;17.08;10.73;;;230.40;1536.00;;;;;;5094026;28;20024;-55
2021/01/02 07:49:33;;;;;;;19.08;11.32;;;230.40;1510.40;;;;;;5094088;28;20385;-54
2021/01/02 07:51:59;;;;;;;19.02;10.52;;;230.50;1510.40;;;;;;5093822;28;20466;-57
2021/01/02 07:54:36;;;;;;;15.68;10.05;;;230.50;1510.40;;;;;;5094214;28;20040;-55
2021/01/02 07:57:06;;;;;;;18.88;10.40;;;230.50;1510.40;;;;;;5093733;28;20028;-55
2021/01/02 07:59:33;;;;;;;18.85;11.23;;;230.60;1510.40;;;;;;5094184;28;20036;-55
2021/01/02 08:02:01;;;;;;;26.23;16.42;;;230.60;1536.00;;;;;;5093801;28;20036;-54
2021/01/02 08:04:29;;;;;;;18.00;10.30;;;230.60;1510.40;;;;;;5093337;28;20048;-57
2021/01/02 08:07:00;;;;;;;21.98;11.38;;;230.60;1510.40;;;;;;5093559;28;20480;-60
2021/01/02 08:09:27;;;;;;;17.45;10.48;;;230.70;1510.40;;;;;;5094068;28;20032;-55
2021/01/02 08:12:06;;;;;;;17.65;11.18;;;230.70;1510.40;;;;;;5093946;28;20032;-56
2021/01/02 08:14:34;;;;;;;21.25;12.32;;;230.70;1484.80;;;;;;5094010;28;20493;-56
2021/01/02 08:17:03;;;;;;;20.20;12.90;;;230.80;1484.80;;;;;;5092207;28;20196;-54
2021/01/02 08:19:38;;;;;;;;;;;230.90;1484.80;;;;;;5093721;28;20035;-55
2021/01/02 08:22:06;;;;;;;23.30;11.70;;;230.90;1484.80;;;;;;5091976;28;19910;-55
2021/01/02 08:24:33;;;;;;;16.00;10.05;;;230.90;1484.80;;;;;;5091923;28;20020;-54
2021/01/02 08:27:01;;;;;;;18.40;10.70;;;230.90;1459.20;;;;;;5093429;28;20057;-55
2021/01/02 08:29:28;;;;;;;15.27;8.27;;;231.00;1459.20;;;;;;5093213;28;20103;-55
2021/01/02 08:32:19;;;;;;;15.02;8.23;;;231.20;1433.60;;;;;;5093574;28;20030;-54
2021/01/02 08:34:46;;;;;;;13.13;8.18;;;231.20;1433.60;;;;;;5092842;28;20044;-54
2021/01/02 08:37:14;;;;;;;14.48;8.35;;;256.00;1408.00;;;;;;5093166;28;20035;-55
2021/01/02 08:39:41;;;;;;;13.70;7.00;;;256.00;1382.40;;;;;;5093315;28;20073;-55
2021/01/02 08:42:08;;;;;;;14.70;7.78;;;256.10;1382.40;;;;;;5093675;28;20028;-56
2021/01/02 08:44:44;;;;;;;11.90;7.60;;;256.10;1408.00;;;;;;5093524;28;20043;-55
2021/01/02 08:47:10;;;;;;;11.57;6.85;;;256.10;1382.40;;;;;;5093769;28;20028;-55
2021/01/02 08:49:44;;;;;;;13.75;7.22;;;256.10;1382.40;;;;;;5093341;28;20128;-55
2021/01/02 08:52:21;;;;;;;14.32;8.38;;;256.20;1382.40;;;;;;5093218;28;20127;-55
2021/01/02 08:54:49;;;;;;;13.05;7.85;;;256.30;1382.40;;;;;;5092625;28;20073;-56
2021/01/02 08:57:31;;;;;;;13.93;7.63;;;256.40;1356.80;;;;;;5092762;28;20528;-58
2021/01/02 09:00:09;;;;;;;13.95;7.53;;;256.50;1356.80;;;;;;5092952;28;20058;-55
2021/01/02 09:02:35;;;;;;;17.30;9.98;;;256.60;1356.80;;;;;;5090008;28;20516;-55
2021/01/02 09:05:12;;;;;;;15.05;8.20;;;256.80;1331.20;;;;;;5091727;28;20071;-54
2021/01/02 09:07:39;;;;;;;22.23;16.70;;;256.80;1331.20;;;;;;5092144;28;20036;-57
2021/01/02 09:10:20;;;;;;;46.30;36.42;;;281.60;1331.20;;;;;;5092313;28;20051;-55
2021/01/02 09:13:03;;;;;;;22.00;14.68;;;281.60;1331.20;;;;;;5090523;28;20008;-54
2021/01/02 09:15:49;;;;;;;17.90;9.60;;;281.70;1331.20;;;;;;5092546;28;20024;-56
2021/01/02 09:18:32;;;;;;;11.68;6.45;;;281.70;1331.20;;;;;;5092426;28;20032;-62
2021/01/02 09:21:09;;;;;;;13.15;8.15;;;281.70;1331.20;;;;;;5092686;28;20028;-55
2021/01/02 09:23:40;;;;;;;9.30;5.43;;;281.70;1331.20;;;;;;5092694;28;20489;-55
2021/01/02 09:26:25;;;;;;;28.85;16.88;;;281.90;1331.20;;;;;;5092488;28;20474;-56
2021/01/02 09:28:52;;;;;;;33.35;29.88;;;281.90;1331.20;;;;;;5092689;28;20051;-55
2021/01/02 09:31:18;;;;;;;14.57;10.60;;;282.00;1356.80;;;;;;5092189;28;20069;-55
2021/01/02 09:33:44;;;;;;;13.15;8.45;;;282.00;1305.60;;;;;;5092444;28;20111;-56
2021/01/02 09:36:12;;;;;;;9.85;7.10;;;282.00;1305.60;;;;;;5092558;28;20127;-54
2021/01/02 09:38:38;;;;;;;11.40;8.10;;;282.10;1305.60;;;;;;5092445;28;20028;-55
2021/01/02 09:41:04;;;;;;;14.60;8.45;;;282.20;1305.60;;;;;;5091142;28;20016;-55
2021/01/02 09:43:30;;;;;;;11.90;6.18;;;282.20;1305.60;;;;;;5092422;28;20115;-56
2021/01/02 09:45:55;;;;;;;14.60;7.30;;;282.30;1305.60;;;;;;5094666;28;20405;-54
2021/01/02 09:48:21;;;;;;;11.80;7.15;;;282.30;1280.00;;;;;;5104627;28;20377;-54
2021/01/02 09:50:47;;;;;;;10.65;6.43;;;282.40;1305.60;;;;;;5102291;28;20023;-56
2021/01/02 09:53:14;;;;;;;12.07;6.30;;;282.40;1280.00;;;;;;5091766;28;20482;-54
2021/01/02 09:55:40;;;;;;;11.07;5.85;;;282.50;1280.00;;;;;;5106342;28;20047;-55
2021/01/02 09:58:05;;;;;;;10.50;6.50;;;282.50;1280.00;;;;;;5091224;28;20471;-58
2021/01/02 10:00:31;;;;;;;11.48;5.82;;;282.40;1280.00;;;;;;5092067;28;20024;-57
2021/01/02 10:02:57;;;;;;;10.98;6.28;;;282.50;1280.00;;;;;;5104744;28;20024;-57
2021/01/02 10:05:24;;;;;;;9.85;5.60;;;307.20;1305.60;;;;;;5100638;28;20044;-54
2021/01/02 10:07:51;;;;;;;12.00;6.18;;;307.20;1305.60;;;;;;5092822;28;20035;-54
2021/01/02 10:10:18;;;;;;;10.93;7.00;;;307.40;1305.60;;;;;;5094404;28;20378;-54
2021/01/02 10:12:46;;;;;;;9.18;5.32;;;307.40;1305.60;;;;;;5095367;28;20454;-56
2021/01/02 10:15:13;;;;;;;9.50;5.60;;;307.40;1305.60;;;;;;5095159;28;20032;-55
2021/01/02 10:17:40;;;;;;;11.15;6.53;;;307.40;1280.00;;;;;;5095178;28;20021;-54
2021/01/02 10:20:06;;;;;;;9.52;5.25;;;307.40;1280.00;;;;;;5101382;28;20024;-55
2021/01/02 10:22:32;;;;;;;9.15;5.55;;;307.40;1280.00;;;;;;5102853;28;20016;-54
2021/01/02 10:24:59;;;;;;;7.03;4.85;;;307.30;1280.00;;;;;;5094861;28;20115;-55
2021/01/02 10:27:25;;;;;;;8.50;4.93;;;307.40;1280.00;;;;;;5095671;28;20024;-55
2021/01/02 10:29:53;;;;;;;8.45;5.22;;;307.40;1280.00;;;;;;5096075;28;20028;-59
2021/01/02 10:32:22;;;;;;;9.20;5.35;;;307.50;1280.00;;;;;;5094746;28;20024;-58
2021/01/02 10:34:51;;;;;;;8.38;5.30;;;307.50;1280.00;;;;;;5095409;28;20027;-60
2021/01/02 10:37:18;;;;;;;;;;;307.60;1280.00;;;;;;5095885;28;20032;-54
2021/01/02 10:39:44;;;;;;;8.57;4.75;;;307.60;1254.40;;;;;;5095518;28;19904;-54
2021/01/02 10:42:12;;;;;;;9.93;4.65;;;307.70;1280.00;;;;;;5095014;28;20030;-56
2021/01/02 10:44:46;;;;;;;6.53;4.57;;;307.70;1254.40;;;;;;5095138;28;20031;-54
2021/01/02 10:47:15;;;;;;;7.72;4.45;;;307.70;1254.40;;;;;;5094797;28;20077;-54
2021/01/02 10:49:40;;;;;;;7.53;5.07;;;307.70;1254.40;;;;;;5094767;28;20615;-55
2021/01/02 10:52:06;;;;;;;7.25;4.45;;;307.80;1254.40;;;;;;5094208;28;20055;-56
2021/01/02 10:54:32;;;;;;;6.47;5.10;;;307.80;1254.40;;;;;;5103210;28;20031;-54
2021/01/02 10:56:58;;;;;;;6.88;4.20;;;307.80;1254.40;;;;;;5099906;28;20028;-56
2021/01/02 10:59:24;;;;;;;8.73;4.78;;;307.90;1254.40;;;;;;5094639;28;20085;-53
2021/01/02 11:01:51;;;;;;;9.07;5.68;;;308.00;1254.40;;;;;;5093240;28;20153;-54
2021/01/02 11:04:20;;;;;;;7.35;4.90;;;332.80;1280.00;;;;;;5093819;28;20044;-55
2021/01/02 11:06:49;;;;;;;8.73;5.20;;;308.00;1254.40;;;;;;5094070;28;20036;-56
2021/01/02 11:09:17;;;;;;;8.25;4.90;;;308.00;1228.80;;;;;;5094825;28;20056;-56
2021/01/02 11:11:42;;;;;;;5.90;4.25;;;308.10;1254.40;;;;;;5094466;28;20374;-57
2021/01/02 11:14:10;;;;;;;8.95;4.53;;;308.10;1254.40;;;;;;5094327;28;20020;-56
2021/01/02 11:16:42;;;;;;;6.63;4.88;;;332.80;1254.40;;;;;;5094567;28;20016;-57
2021/01/02 11:19:27;;;;;;;8.27;5.10;;;333.20;1228.80;;;;;;5094447;28;20458;-56
2021/01/02 11:21:56;;;;;;;6.03;4.10;;;332.80;1203.20;;;;;;5094351;28;20102;-57
2021/01/02 11:24:31;;;;;;;5.70;3.65;;;332.80;1203.20;;;;;;5094215;28;20378;-54
2021/01/02 11:27:00;;;;;;;7.95;4.22;;;332.80;1228.80;;;;;;5094774;28;20092;-55
2021/01/02 11:29:28;;;;;;;7.15;4.15;;;332.90;1203.20;;;;;;5094194;28;20016;-56
2021/01/02 11:31:54;;;;;;;6.47;4.63;;;332.90;1203.20;;;;;;5094393;28;20024;-55
2021/01/02 11:34:22;;;;;;;6.55;4.13;;;333.00;1203.20;;;;;;5094716;28;20039;-55
2021/01/02 11:36:50;;;;;;;7.38;4.53;;;333.10;1203.20;;;;;;5093963;28;20020;-59
2021/01/02 11:39:16;;;;;;;7.63;4.22;;;333.10;1203.20;;;;;;5094402;28;20028;-60
2021/01/02 11:41:42;;;;;;;6.85;4.00;;;333.10;1177.60;;;;;;5093936;28;20463;-57
2021/01/02 11:44:11;;;;;;;5.03;3.35;;;333.10;1203.20;;;;;;5084666;28;20039;-55
2021/01/02 11:46:42;;;;;;;6.72;3.88;;;333.20;1177.60;;;;;;5094103;28;20373;-55
2021/01/02 11:49:09;;;;;;;7.00;4.07;;;333.20;1177.60;;;;;;5093874;28;20020;-56
2021/01/02 11:51:35;;;;;;;7.35;4.57;;;333.20;1177.60;;;;;;5093752;28;20076;-57
2021/01/02 11:54:02;;;;;;;7.30;4.22;;;333.30;1177.60;;;;;;5098125;28;20024;-55
2021/01/02 11:56:28;;;;;;;9.52;4.47;;;333.30;1177.60;;;;;;5103730;28;20028;-54
2021/01/02 11:58:55;;;;;;;8.07;4.22;;;333.40;1177.60;;;;;;5093284;28;20028;-55
2021/01/02 12:01:23;;;;;;;10.43;5.35;;;333.40;1177.60;;;;;;5094078;28;20051;-55
2021/01/02 12:03:49;;;;;;;10.68;5.35;;;333.40;1177.60;;;;;;5093606;28;20048;-56
2021/01/02 12:06:15;;;;;;;9.52;5.63;;;333.30;1203.20;;;;;;5108513;28;20034;-57
2021/01/02 12:08:41;;;;;;;9.82;4.97;;;333.40;1177.60;;;;;;5104024;27;20026;-54
2021/01/02 12:11:07;;;;;;;8.90;4.45;;;333.30;1177.60;;;;;;5106250;28;20424;-56
2021/01/02 12:13:40;;;;;;;11.82;5.72;;;333.40;1177.60;;;;;;5111860;28;20069;-54
2021/01/02 12:16:06;;;;;;;12.32;5.00;;;333.50;1177.60;;;;;;5110307;28;20016;-54
2021/01/02 12:18:32;;;;;;;9.65;5.30;;;333.50;1177.60;;;;;;5112536;28;20024;-55
2021/01/02 12:20:58;;;;;;;10.52;5.25;;;333.60;1177.60;;;;;;5105523;28;20028;-55
2021/01/02 12:23:25;;;;;;;9.55;5.55;;;333.60;1177.60;;;;;;5093235;28;20032;-56
2021/01/02 12:25:51;;;;;;;10.70;4.88;;;333.70;1177.60;;;;;;5098155;28;20546;-56